Time;durP1;ratioP1;P1;durP2;ratioP2;P2;SDS_P1;SDS_P2;PMS_P1;PMS_P2;Temp;Humidity;BMP_temperature;BMP_pressure;BME280_temperature;BME280_humidity;BME280_pressure;Samples;Min_cycle;Max_cycle;Signal;HPM_P1;HPM_P2
2021/12/17 00:03:32;;;;;;;5.13;2.10;;;;;;;23.48;39.20;97549.38;10406089;28;96837;-64
2021/12/17 00:08:35;;;;;;;7.25;2.58;;;;;;;23.46;39.21;97554.09;10412242;27;96998;-64
2021/12/17 00:13:42;;;;;;;4.78;1.92;;;;;;;23.44;39.49;97551.63;10409308;28;96841;-64
2021/12/17 00:18:59;;;;;;;5.70;2.15;;;;;;;23.44;39.45;97556.13;10407999;28;96933;-64
2021/12/17 00:51:17;;;;;;;3.47;1.67;;;;;;;23.36;39.83;97568.63;10283583;28;97101;-63
2021/12/17 00:56:19;;;;;;;3.40;1.55;;;;;;;23.35;40.18;97574.94;10273159;28;97062;-64
2021/12/17 01:01:24;;;;;;;4.45;1.75;;;;;;;23.33;40.20;97571.66;10278322;28;97633;-64
2021/12/17 01:06:27;;;;;;;2.97;1.58;;;;;;;23.33;40.30;97577.00;10278293;28;98784;-64
2021/12/17 01:11:30;;;;;;;3.25;1.50;;;;;;;23.31;40.52;97581.72;10283442;28;98515;-63
2021/12/17 01:16:35;;;;;;;3.40;1.60;;;;;;;23.31;39.94;97579.03;10282011;28;97061;-63
2021/12/17 01:21:54;;;;;;;2.75;1.40;;;;;;;23.28;39.94;97579.44;10347489;28;97325;-63
2021/12/17 01:43:05;;;;;;;2.70;1.30;;;;;;;23.20;40.03;97598.19;10392953;27;97263;-63
2021/12/17 01:48:15;;;;;;;4.40;2.00;;;;;;;23.22;40.04;97592.69;10415483;27;99142;-64
2021/12/17 02:04:04;;;;;;;4.70;1.88;;;;;;;23.18;40.21;97616.25;10426526;27;96914;-63
2021/12/17 02:09:26;;;;;;;2.58;1.40;;;;;;;23.17;40.19;97611.94;10421371;27;97411;-63
2021/12/17 02:20:11;;;;;;;2.38;1.20;;;;;;;23.14;39.99;97625.66;10415917;27;97726;-63
2021/12/17 02:30:51;;;;;;;2.92;1.17;;;;;;;23.13;40.17;97629.31;10402997;27;96875;-63
2021/12/17 02:35:54;;;;;;;2.97;1.10;;;;;;;23.12;40.22;97627.69;10412035;27;96961;-64
2021/12/17 02:46:27;;;;;;;2.63;1.30;;;;;;;23.10;39.69;97630.56;10408373;27;98385;-63
2021/12/17 02:51:30;;;;;;;2.00;0.98;;;;;;;23.09;39.65;97630.75;10399720;27;99266;-63
2021/12/17 02:56:35;;;;;;;2.67;1.13;;;;;;;23.07;40.02;97620.25;10413202;27;100085;-64
2021/12/17 03:01:38;;;;;;;2.75;1.25;;;;;;;23.06;39.31;97633.78;10420627;27;97029;-64
2021/12/17 03:06:42;;;;;;;2.17;1.25;;;;;;;23.04;39.80;97633.97;10413777;28;97615;-64
2021/12/17 03:11:46;;;;;;;2.60;1.27;;;;;;;23.05;39.83;97642.78;10411186;27;96933;-63
2021/12/17 03:16:59;;;;;;;1.52;1.05;;;;;;;23.04;39.44;97646.47;10425064;27;97790;-64
2021/12/17 03:27:26;;;;;;;2.20;1.15;;;;;;;23.00;39.54;97662.84;10418805;27;97683;-63
2021/12/17 03:32:29;;;;;;;1.83;1.30;;;;;;;22.99;39.27;97663.88;10427263;27;97789;-64
2021/12/17 03:37:32;;;;;;;3.63;1.48;;;;;;;22.96;39.39;97674.91;10431495;27;97940;-64
2021/12/17 03:42:36;;;;;;;2.50;1.27;;;;;;;22.94;39.58;97674.28;10414114;27;97111;-63
2021/12/17 03:47:39;;;;;;;1.92;1.00;;;;;;;22.97;39.60;97679.22;10410363;27;98944;-63
2021/12/17 03:52:42;;;;;;;2.08;1.15;;;;;;;22.93;39.79;97680.63;10413740;27;97012;-63
2021/12/17 03:57:46;;;;;;;2.10;1.20;;;;;;;22.92;39.57;97678.97;10416012;27;102586;-63
2021/12/17 04:02:49;;;;;;;2.35;1.20;;;;;;;22.93;39.29;97683.28;10430887;27;98856;-63
2021/12/17 04:07:52;;;;;;;2.13;1.08;;;;;;;22.93;38.94;97679.81;10413452;27;96943;-63
2021/12/17 04:13:01;;;;;;;1.88;0.70;;;;;;;22.87;39.12;97684.03;10413333;27;96906;-63
2021/12/17 04:18:07;;;;;;;1.92;1.00;;;;;;;22.86;38.81;97689.59;10420315;27;97749;-63
2021/12/17 04:23:10;;;;;;;2.33;1.02;;;;;;;22.84;38.93;97691.59;10406694;27;99533;-63
2021/12/17 04:28:15;;;;;;;2.15;1.08;;;;;;;22.83;38.44;97690.78;10407655;27;98313;-63
2021/12/17 04:33:18;;;;;;;1.50;0.88;;;;;;;22.80;38.91;97688.47;10410379;27;98149;-64
2021/12/17 04:38:22;;;;;;;1.70;1.10;;;;;;;22.79;38.96;97697.50;10413198;27;99338;-64
2021/12/17 04:43:37;;;;;;;3.20;1.20;;;;;;;22.77;39.21;97694.22;10424026;27;97330;-64
2021/12/17 04:59:22;;;;;;;1.35;1.00;;;;;;;22.75;38.89;97696.22;10401789;27;96867;-64
2021/12/17 05:04:26;;;;;;;2.85;0.90;;;;;;;22.73;38.81;97692.91;10412535;27;97070;-65
2021/12/17 05:09:36;;;;;;;2.03;1.00;;;;;;;22.72;38.79;97696.63;10409495;27;97046;-64
2021/12/17 05:20:09;;;;;;;1.75;1.05;;;;;;;22.67;39.12;97688.38;10427941;27;100268;-64
2021/12/17 05:25:16;;;;;;;1.65;0.90;;;;;;;22.67;38.91;97683.84;10421310;27;96935;-65
2021/12/17 05:30:22;;;;;;;1.80;0.70;;;;;;;22.66;38.64;97697.34;10414447;27;96953;-65
2021/12/17 05:35:27;;;;;;;1.23;0.70;;;;;;;22.65;38.94;97695.69;10418440;27;97404;-65
2021/12/17 05:40:30;;;;;;;1.35;0.70;;;;;;;22.62;38.76;97713.72;10408899;27;99835;-65
2021/12/17 05:45:36;;;;;;;2.30;0.73;;;;;;;22.61;38.67;97706.75;10410385;27;96926;-64
2021/12/17 05:50:41;;;;;;;4.00;1.05;;;;;;;22.61;38.57;97721.88;10424947;27;97915;-64
2021/12/17 05:55:44;;;;;;;1.52;0.93;;;;;;;22.60;38.66;97726.41;10411989;27;97073;-65
2021/12/17 06:00:48;;;;;;;1.02;0.60;;;;;;;22.57;38.85;97716.13;10408379;27;97172;-65
2021/12/17 06:05:52;;;;;;;0.93;0.55;;;;;;;22.58;38.54;97720.44;10417842;27;100953;-64
2021/12/17 06:10:55;;;;;;;1.27;0.60;;;;;;;22.57;38.72;97723.28;10410544;27;97181;-64
2021/12/17 06:15:59;;;;;;;1.83;0.90;;;;;;;22.56;38.65;97734.94;10397829;27;96875;-65
2021/12/17 06:21:02;;;;;;;1.45;0.70;;;;;;;22.54;38.40;97732.47;10404660;27;97875;-64
2021/12/17 06:26:05;;;;;;;1.23;0.80;;;;;;;22.53;38.51;97741.47;10405910;27;97124;-65
2021/12/17 06:31:09;;;;;;;1.03;0.80;;;;;;;22.52;38.36;97739.81;10411384;27;97705;-65
2021/12/17 06:36:12;;;;;;;1.35;0.90;;;;;;;22.52;39.13;97739.00;10414493;27;96989;-65
2021/12/17 06:41:15;;;;;;;0.93;0.52;;;;;;;22.50;38.36;97752.50;10415497;27;98969;-64
2021/12/17 06:46:25;;;;;;;0.90;0.52;;;;;;;22.49;38.26;97756.19;10417987;27;98649;-65
2021/12/17 07:24:15;;;;;;;1.20;0.75;;;;;;;22.41;38.32;97793.53;10112414;28;97932;-65
2021/12/17 07:34:45;;;;;;;0.63;0.52;;;;;;;22.40;38.22;97789.22;10128035;28;97654;-65
2021/12/17 07:39:48;;;;;;;0.85;0.70;;;;;;;22.40;38.11;97798.03;10280355;28;97000;-65
2021/12/17 07:44:51;;;;;;;0.88;0.60;;;;;;;22.40;38.36;97806.03;10403978;27;98491;-65
2021/12/17 07:49:55;;;;;;;8.65;7.85;;;;;;;22.17;35.39;97814.09;10401019;27;97250;-65
2021/12/17 07:54:58;;;;;;;;;;;;;;;21.59;37.13;97804.97;10400892;27;97532;-68
2021/12/17 08:04:33;;;;;;;14.68;13.18;;;;;;;14.32;42.35;97840.13;10376519;28;96733;-65
2021/12/17 08:09:36;;;;;;;;;;;;;;;9.71;48.86;97849.81;10324204;28;96726;-65
2021/12/17 08:14:39;;;;;;;18.25;14.60;;;;;;;7.01;52.68;97848.06;10319689;28;97194;-65
2021/12/17 08:25:12;;;;;;;21.40;15.57;;;;;;;4.39;56.24;97861.22;10339009;28;98597;-64
2021/12/17 08:30:24;;;;;;;20.98;15.20;;;;;;;3.57;57.19;97857.03;10329566;28;97047;-64
2021/12/17 08:35:29;;;;;;;22.80;16.17;;;;;;;3.07;58.54;97859.94;10328459;28;96933;-64
2021/12/17 08:40:32;;;;;;;24.95;17.75;;;;;;;2.81;58.26;97858.38;10332801;28;97260;-64
2021/12/17 08:45:35;;;;;;;22.50;16.73;;;;;;;2.46;59.91;97870.91;10329252;28;98723;-64
2021/12/17 08:50:39;;;;;;;26.33;16.52;;;;;;;2.43;60.71;97871.00;10331384;28;97160;-64
2021/12/17 08:55:42;;;;;;;26.25;17.17;;;;;;;2.37;61.33;97872.09;10334415;28;97267;-64
2021/12/17 09:00:47;;;;;;;25.67;16.77;;;;;;;2.33;60.96;97878.22;10331066;28;97234;-64
2021/12/17 09:05:51;;;;;;;26.20;17.60;;;;;;;2.30;61.88;97874.03;10327855;28;96979;-64
2021/12/17 09:10:55;;;;;;;27.30;17.15;;;;;;;2.31;62.00;97890.34;10328675;28;97007;-64
2021/12/17 09:16:04;;;;;;;26.40;17.33;;;;;;;2.28;62.58;97888.72;10297248;28;98201;-64
2021/12/17 09:21:09;;;;;;;26.60;16.55;;;;;;;2.15;63.25;97892.66;10290791;28;97145;-64
2021/12/17 09:26:12;;;;;;;28.05;17.10;;;;;;;2.13;63.37;97899.59;10308708;28;97988;-64
2021/12/17 09:31:15;;;;;;;25.67;17.05;;;;;;;2.11;64.09;97909.09;10298924;28;96914;-65
2021/12/17 09:36:20;;;;;;;27.38;17.98;;;;;;;2.11;64.62;97922.00;10305050;28;97502;-64
2021/12/17 09:41:26;;;;;;;27.08;17.27;;;;;;;2.13;64.44;97918.47;10298336;28;96953;-64
2021/12/17 09:46:29;;;;;;;26.00;16.92;;;;;;;2.13;64.78;97921.06;10304645;28;99057;-64
2021/12/17 09:51:33;;;;;;;29.10;17.88;;;;;;;2.15;65.41;97920.16;10287093;28;97178;-65
2021/12/17 09:56:36;;;;;;;27.92;17.83;;;;;;;2.16;65.37;97929.56;10290978;28;101034;-65
2021/12/17 10:01:39;;;;;;;27.90;17.63;;;;;;;2.19;65.72;97917.41;10288971;28;97260;-64
2021/12/17 10:06:44;;;;;;;26.45;17.20;;;;;;;2.19;65.69;97912.25;10298871;28;99900;-64
2021/12/17 10:12:04;;;;;;;30.50;19.10;;;;;;;2.19;66.77;97916.59;10279091;28;101038;-64
2021/12/17 10:17:12;;;;;;;28.52;17.58;;;;;;;2.28;66.56;97914.50;10287979;28;97167;-65
2021/12/17 10:22:18;;;;;;;26.48;16.52;;;;;;;2.36;65.79;97913.41;10280892;28;97595;-64
2021/12/17 10:27:22;;;;;;;24.58;16.38;;;;;;;2.41;66.37;97911.50;10288421;28;96951;-64
2021/12/17 10:32:28;;;;;;;25.98;16.25;;;;;;;2.45;66.36;97905.31;10284723;28;96955;-64
2021/12/17 10:37:39;;;;;;;24.02;16.10;;;;;;;2.42;66.80;97895.09;10288760;28;96910;-65
2021/12/17 10:42:48;;;;;;;25.35;16.30;;;;;;;2.50;66.46;97898.25;10286726;28;97497;-65
2021/12/17 10:48:02;;;;;;;25.00;16.17;;;;;;;2.61;66.20;97892.69;10286059;28;98142;-65
2021/12/17 10:53:09;;;;;;;25.88;16.42;;;;;;;2.72;66.56;97892.28;10274265;28;96965;-64
2021/12/17 10:58:12;;;;;;;25.77;16.92;;;;;;;2.81;66.18;97891.94;10291229;28;96942;-64
2021/12/17 11:03:15;;;;;;;27.33;17.52;;;;;;;2.82;66.89;97889.31;10286407;28;97816;-65
2021/12/17 11:08:28;;;;;;;25.67;16.77;;;;;;;2.72;66.75;97885.38;10283943;28;97593;-64
2021/12/17 11:13:31;;;;;;;26.60;16.38;;;;;;;2.78;66.45;97881.72;10290666;28;98576;-64
2021/12/17 11:18:34;;;;;;;25.20;16.88;;;;;;;2.80;67.30;97880.75;10285629;28;97116;-64
2021/12/17 11:23:38;;;;;;;26.10;16.40;;;;;;;2.74;67.05;97872.44;10291295;28;98910;-64
2021/12/17 11:28:44;;;;;;;25.57;17.67;;;;;;;2.64;67.23;97862.44;10290919;28;97101;-64
2021/12/17 11:33:47;;;;;;;26.48;16.88;;;;;;;2.67;67.52;97858.91;10288807;28;98406;-65
2021/12/17 11:39:00;;;;;;;27.08;17.20;;;;;;;2.57;67.86;97853.25;10287700;28;98499;-64
2021/12/17 11:44:12;;;;;;;26.25;17.17;;;;;;;2.59;67.53;97835.97;10288737;28;100989;-64
2021/12/17 11:49:16;;;;;;;25.38;15.90;;;;;;;2.62;67.51;97832.47;10308884;28;96857;-65
2021/12/17 11:54:29;;;;;;;27.15;17.45;;;;;;;2.76;67.75;97816.44;10293425;28;98472;-65
2021/12/17 11:59:38;;;;;;;25.40;15.55;;;;;;;2.95;67.53;97799.31;10297882;28;97165;-64
2021/12/17 12:04:59;;;;;;;25.95;16.55;;;;;;;3.20;67.83;97801.69;10306221;28;97845;-64
2021/12/17 12:10:08;;;;;;;25.02;15.20;;;;;;;3.22;67.54;97799.06;10293306;28;98489;-65
2021/12/17 12:15:33;;;;;;;24.48;16.55;;;;;;;3.25;67.46;97793.78;10292717;28;96955;-65
2021/12/17 12:20:56;;;;;;;21.02;13.50;;;;;;;3.19;67.24;97794.03;10297353;28;96890;-65
2021/12/17 12:26:40;;;;;;;19.75;12.82;;;;;;;3.14;67.21;97791.66;10307661;28;97576;-64
2021/12/17 12:31:58;;;;;;;17.15;12.38;;;;;;;3.04;67.00;97798.91;10303842;28;99459;-65
2021/12/17 12:37:03;;;;;;;22.42;14.23;;;;;;;3.18;66.86;97787.19;10297334;28;98102;-65
2021/12/17 12:42:14;;;;;;;22.15;14.90;;;;;;;3.31;67.03;97788.38;10284846;28;103443;-65
2021/12/17 12:47:39;;;;;;;23.35;15.38;;;;;;;3.36;66.17;97785.56;10293796;28;96910;-65
2021/12/17 12:52:44;;;;;;;23.83;15.80;;;;;;;3.25;67.07;97783.44;10295404;28;97306;-65
2021/12/17 12:57:50;;;;;;;22.50;14.50;;;;;;;3.30;66.76;97786.66;10301980;28;97017;-65
2021/12/17 13:02:55;;;;;;;24.58;15.23;;;;;;;3.17;67.08;97780.34;10304843;28;98521;-65
2021/12/17 13:08:00;;;;;;;27.45;16.33;;;;;;;3.01;67.64;97780.97;10307495;28;97136;-65
2021/12/17 13:13:08;;;;;;;26.27;15.00;;;;;;;2.78;68.07;97783.66;10302049;28;96961;-65
2021/12/17 13:23:38;;;;;;;23.73;15.13;;;;;;;2.55;68.34;97767.34;10298889;28;98424;-65
2021/12/17 13:29:05;;;;;;;26.05;15.90;;;;;;;2.49;68.77;97765.00;10297396;28;97588;-65
2021/12/17 13:34:10;;;;;;;21.75;13.80;;;;;;;2.30;69.19;97768.31;10297358;28;96939;-65
2021/12/17 13:39:13;;;;;;;23.10;14.50;;;;;;;2.30;68.90;97763.16;10293267;28;97612;-65
2021/12/17 13:44:32;;;;;;;21.83;14.20;;;;;;;2.37;69.03;97761.19;10298611;28;98464;-65
2021/12/17 13:49:36;;;;;;;23.42;13.07;;;;;;;2.33;69.07;97769.09;10302622;28;98781;-65
2021/12/17 13:54:39;;;;;;;22.05;14.52;;;;;;;2.40;69.24;97767.94;10297568;28;99490;-65
2021/12/17 13:59:44;;;;;;;21.70;13.77;;;;;;;2.49;69.31;97772.72;10295649;28;96857;-64
2021/12/17 14:05:01;;;;;;;;;;;;;;;2.50;68.91;97766.69;10306058;28;96850;-65
2021/12/17 14:10:07;;;;;;;;;;;;;;;2.54;67.95;97770.81;10306370;28;96799;-65
2021/12/17 14:15:13;;;;;;;21.27;13.43;;;;;;;2.54;68.18;97765.66;10308340;28;96917;-65
2021/12/17 14:20:18;;;;;;;23.75;13.88;;;;;;;2.57;68.13;97770.69;10307223;28;97075;-65
2021/12/17 14:25:27;;;;;;;23.92;14.73;;;;;;;2.58;68.53;97772.41;10298034;28;96858;-65
2021/12/17 14:30:36;;;;;;;25.05;14.35;;;;;;;2.59;69.09;97779.22;10291909;28;99793;-65
2021/12/17 14:35:54;;;;;;;23.40;13.60;;;;;;;2.58;69.05;97782.72;10295093;28;97151;-65
2021/12/17 14:41:00;;;;;;;24.30;14.65;;;;;;;2.64;69.12;97781.63;10306084;28;97134;-65
2021/12/17 14:46:16;;;;;;;22.33;14.73;;;;;;;2.63;69.47;97785.97;10298931;28;101193;-65
2021/12/17 15:02:23;;;;;;;25.17;15.65;;;;;;;2.47;69.59;97796.00;10292527;28;96775;-65
2021/12/17 15:07:26;;;;;;;22.38;14.07;;;;;;;2.41;69.61;97790.28;10294577;28;97077;-65
2021/12/17 15:12:38;;;;;;;24.08;14.65;;;;;;;2.39;69.76;97782.59;10290519;28;96939;-65
2021/12/17 15:17:44;;;;;;;24.23;14.18;;;;;;;2.34;70.28;97779.34;10300407;28;97395;-65
2021/12/17 15:22:54;;;;;;;25.13;14.30;;;;;;;2.17;70.36;97782.56;10295857;28;96804;-65
2021/12/17 15:27:57;;;;;;;21.95;13.80;;;;;;;2.11;70.62;97778.47;10300618;28;98453;-65
2021/12/17 15:33:01;;;;;;;24.48;14.10;;;;;;;2.06;71.08;97782.97;10289252;28;99151;-65
2021/12/17 15:38:08;;;;;;;23.13;13.77;;;;;;;2.08;70.88;97772.59;10297618;28;98894;-65
2021/12/17 15:43:12;;;;;;;24.83;13.80;;;;;;;2.11;70.51;97773.31;10289694;28;97290;-65
2021/12/17 15:48:18;;;;;;;24.83;14.32;;;;;;;2.01;71.19;97764.25;10290304;28;97373;-65
2021/12/17 15:53:37;;;;;;;23.00;13.68;;;;;;;1.96;71.20;97762.75;10302418;28;96977;-65
2021/12/17 15:58:40;;;;;;;27.90;15.18;;;;;;;1.97;71.19;97749.78;10293015;28;98936;-65
2021/12/17 16:03:45;;;;;;;24.52;13.65;;;;;;;2.07;71.48;97751.13;10284821;28;101481;-65
2021/12/17 16:08:53;;;;;;;25.90;14.80;;;;;;;2.10;71.18;97752.75;10287768;28;97079;-65
2021/12/17 16:24:38;;;;;;;23.42;13.10;;;;;;;1.81;72.19;97767.56;10290964;28;96710;-65
2021/12/17 16:29:41;;;;;;;24.77;14.15;;;;;;;1.72;72.45;97770.47;10293954;28;96777;-65
2021/12/17 16:34:45;;;;;;;23.17;12.77;;;;;;;1.60;73.30;97769.19;10297020;28;97071;-65
2021/12/17 16:39:48;;;;;;;24.27;13.40;;;;;;;1.54;73.01;97762.50;10293621;28;100866;-65
2021/12/17 16:45:14;;;;;;;23.55;13.52;;;;;;;1.54;73.01;97770.25;10293304;28;96909;-65
2021/12/17 16:50:22;;;;;;;25.90;14.18;;;;;;;1.53;73.15;97760.81;10281585;28;96766;-65
2021/12/17 16:55:25;;;;;;;23.35;13.55;;;;;;;1.54;72.72;97756.53;10291318;28;98603;-65
2021/12/17 17:00:28;;;;;;;22.80;13.32;;;;;;;1.69;72.54;97761.09;10304525;28;97153;-65
2021/12/17 17:05:33;;;;;;;24.30;13.55;;;;;;;1.62;73.15;97761.41;10304831;28;97290;-65
2021/12/17 17:10:36;;;;;;;25.60;14.57;;;;;;;1.58;73.08;97762.41;10306593;28;98368;-65
2021/12/17 17:15:39;;;;;;;22.75;13.02;;;;;;;1.51;73.53;97769.50;10299187;28;97820;-65
2021/12/17 17:20:44;;;;;;;26.77;14.80;;;;;;;1.50;73.20;97775.53;10306157;28;97156;-65
2021/12/17 17:25:47;;;;;;;26.10;14.63;;;;;;;1.48;72.88;97774.75;10303142;28;97198;-65
2021/12/17 17:30:52;;;;;;;28.08;15.25;;;;;;;1.53;73.11;97771.13;10305028;28;97115;-65
2021/12/17 17:35:58;;;;;;;29.15;16.30;;;;;;;1.56;73.12;97778.75;10311862;28;98448;-65
2021/12/17 17:41:01;;;;;;;27.85;15.25;;;;;;;1.60;72.98;97776.06;10295539;28;97156;-65
2021/12/17 17:46:05;;;;;;;27.50;14.65;;;;;;;1.57;73.11;97779.56;10305228;28;96833;-65
2021/12/17 17:51:09;;;;;;;27.52;14.85;;;;;;;1.54;73.52;97770.25;10300041;28;104848;-65
2021/12/17 17:56:13;;;;;;;31.10;16.38;;;;;;;1.56;73.24;97760.72;10305842;28;97154;-65
2021/12/17 18:01:16;;;;;;;27.27;14.35;;;;;;;1.59;72.97;97770.09;10297374;28;98768;-65
2021/12/17 18:06:20;;;;;;;26.10;15.10;;;;;;;1.53;73.14;97765.97;10294213;28;96803;-65
2021/12/17 18:11:22;;;;;;;24.52;14.25;;;;;;;1.63;72.85;97761.34;10285388;28;104429;-65
2021/12/17 18:16:26;;;;;;;25.27;14.32;;;;;;;1.62;73.25;97757.06;10296491;28;97009;-65
2021/12/17 18:21:30;;;;;;;28.13;15.45;;;;;;;1.68;73.05;97750.88;10293391;28;98557;-65
2021/12/17 18:26:33;;;;;;;27.67;15.15;;;;;;;1.66;73.13;97760.38;10290076;28;97087;-65
2021/12/17 18:31:36;;;;;;;25.73;14.55;;;;;;;1.68;73.21;97768.91;10297429;28;97750;-65
2021/12/17 18:36:40;;;;;;;39.97;23.63;;;;;;;1.67;73.35;97773.22;10286644;28;97324;-64
2021/12/17 18:41:45;;;;;;;34.75;15.90;;;;;;;1.68;73.33;97774.06;10295346;28;104527;-65
2021/12/17 18:46:50;;;;;;;33.30;17.73;;;;;;;1.61;73.52;97770.00;10298366;28;97201;-65
2021/12/17 18:51:54;;;;;;;32.07;19.27;;;;;;;1.55;73.22;97769.31;10293852;28;97288;-65
2021/12/17 18:56:57;;;;;;;27.13;14.65;;;;;;;1.54;73.52;97767.66;10283740;28;96744;-65
2021/12/17 19:02:00;;;;;;;24.20;13.70;;;;;;;1.47;73.87;97770.50;10291305;28;96763;-65
2021/12/17 19:07:07;;;;;;;24.42;13.63;;;;;;;1.33;73.79;97763.25;10290457;28;96838;-65
2021/12/17 19:12:10;;;;;;;24.42;13.48;;;;;;;1.28;73.49;97770.28;10286251;28;96999;-65
2021/12/17 19:17:13;;;;;;;24.83;14.32;;;;;;;1.25;73.92;97762.69;10291022;28;96910;-65
2021/12/17 19:22:29;;;;;;;25.17;14.15;;;;;;;1.24;74.20;97766.16;10294373;28;98715;-65
2021/12/17 19:27:32;;;;;;;26.40;13.82;;;;;;;1.13;74.02;97762.22;10294478;28;98767;-65
2021/12/17 19:32:35;;;;;;;23.02;12.73;;;;;;;1.11;74.00;97764.00;10288206;28;101021;-65
2021/12/17 19:37:39;;;;;;;23.40;13.20;;;;;;;1.12;74.38;97765.69;10294248;28;98293;-65
2021/12/17 19:42:42;;;;;;;26.48;15.07;;;;;;;1.15;74.56;97775.84;10285596;28;96738;-65
2021/12/17 19:47:59;;;;;;;24.05;14.23;;;;;;;1.14;74.29;97776.78;10286730;28;97264;-65
2021/12/17 19:53:04;;;;;;;24.40;14.07;;;;;;;1.14;74.38;97768.19;10284923;28;96909;-65
2021/12/17 19:58:06;;;;;;;29.33;15.60;;;;;;;1.23;73.89;97767.06;10281316;28;98449;-65
2021/12/17 20:03:10;;;;;;;28.05;15.55;;;;;;;1.32;73.74;97769.31;10293182;28;97317;-65
2021/12/17 20:08:18;;;;;;;23.92;14.45;;;;;;;1.33;73.58;97773.56;10289489;28;96906;-65
2021/12/17 20:13:22;;;;;;;25.40;14.27;;;;;;;1.32;73.54;97777.03;10287965;28;96782;-65
2021/12/17 20:18:24;;;;;;;25.40;13.85;;;;;;;1.29;73.89;97787.44;10283218;28;97035;-65
2021/12/17 20:23:31;;;;;;;22.98;13.55;;;;;;;1.30;73.90;97789.97;10285364;28;98936;-65
2021/12/17 20:28:36;;;;;;;25.13;14.73;;;;;;;1.30;73.63;97789.13;10285775;28;97607;-65
2021/12/17 20:33:38;;;;;;;24.60;14.73;;;;;;;1.31;73.77;97785.63;10282281;28;98181;-65
2021/12/17 20:38:43;;;;;;;27.10;15.30;;;;;;;1.34;73.62;97790.69;10284968;28;98373;-66
2021/12/17 20:43:47;;;;;;;25.55;15.50;;;;;;;1.40;73.39;97790.50;10286754;28;97830;-65
2021/12/17 20:48:50;;;;;;;27.30;15.95;;;;;;;1.47;73.40;97786.81;10282639;28;98762;-65
2021/12/17 20:53:55;;;;;;;27.30;15.40;;;;;;;1.56;73.45;97781.31;10282829;28;97698;-65
2021/12/17 20:58:58;;;;;;;28.65;16.45;;;;;;;1.63;73.07;97775.97;10281963;28;100190;-65
2021/12/17 21:04:01;;;;;;;26.13;15.05;;;;;;;1.59;73.43;97774.38;10283547;28;96870;-65
2021/12/17 21:09:10;;;;;;;26.00;15.88;;;;;;;1.67;73.42;97773.22;10290197;28;97040;-65
2021/12/17 21:14:16;;;;;;;25.83;15.15;;;;;;;1.69;73.17;97773.16;10289143;28;98485;-65
2021/12/17 21:19:21;;;;;;;25.42;15.40;;;;;;;1.66;73.35;97776.69;10291303;28;99208;-65
2021/12/17 21:24:27;;;;;;;26.75;15.95;;;;;;;1.63;73.19;97773.41;10293674;28;98455;-65
2021/12/17 21:29:30;;;;;;;24.73;15.75;;;;;;;1.56;73.49;97776.16;10294542;28;96860;-65
2021/12/17 21:34:33;;;;;;;26.63;15.73;;;;;;;1.56;73.56;97771.03;10308554;28;98873;-65
2021/12/17 21:39:38;;;;;;;27.25;15.45;;;;;;;1.59;73.66;97759.78;10291386;28;98300;-65
2021/12/17 21:44:47;;;;;;;31.17;18.15;;;;;;;1.64;73.47;97762.19;10299913;28;96967;-64
2021/12/17 21:49:51;;;;;;;29.90;17.60;;;;;;;1.65;73.56;97764.69;10293567;28;97790;-64
2021/12/17 21:54:55;;;;;;;27.83;16.10;;;;;;;1.68;73.80;97763.75;10291889;28;96825;-65
2021/12/17 21:59:58;;;;;;;28.55;16.42;;;;;;;1.73;73.47;97761.88;10287841;28;98268;-66
2021/12/17 22:05:03;;;;;;;25.27;15.52;;;;;;;1.71;73.74;97779.09;10292636;28;99261;-65
2021/12/17 22:10:08;;;;;;;26.97;16.20;;;;;;;1.68;73.68;97769.75;10287398;28;99204;-65
2021/12/17 22:15:11;;;;;;;27.60;16.43;;;;;;;1.65;73.83;97774.16;10286443;28;98451;-65
2021/12/17 22:20:27;;;;;;;27.33;15.05;;;;;;;1.67;73.61;97772.38;10290858;28;98628;-65
2021/12/17 22:25:33;;;;;;;24.75;15.48;;;;;;;1.69;73.83;97761.09;10286579;28;98538;-65
2021/12/17 22:30:36;;;;;;;24.75;15.07;;;;;;;1.73;73.65;97759.28;10279348;28;98727;-65
2021/12/17 22:35:40;;;;;;;25.83;15.68;;;;;;;1.74;73.52;97745.50;10291072;28;98702;-65
2021/12/17 22:41:01;;;;;;;29.25;16.88;;;;;;;1.80;73.42;97742.69;10286885;28;98889;-65
2021/12/17 22:46:05;;;;;;;26.23;15.73;;;;;;;1.81;73.45;97734.06;10290875;28;96974;-65
2021/12/17 22:51:08;;;;;;;30.10;16.75;;;;;;;1.83;73.58;97732.25;10289311;28;97811;-65
2021/12/17 22:56:12;;;;;;;27.55;16.30;;;;;;;1.79;73.75;97725.56;10302146;28;98133;-65
2021/12/17 23:01:18;;;;;;;31.23;17.40;;;;;;;1.83;73.63;97727.09;10286871;28;98571;-65
2021/12/17 23:06:29;;;;;;;31.35;17.98;;;;;;;1.84;73.75;97722.81;10288634;28;96828;-66
2021/12/17 23:11:34;;;;;;;28.95;16.30;;;;;;;1.78;74.07;97723.84;10290732;28;97064;-65
2021/12/17 23:16:41;;;;;;;25.48;15.50;;;;;;;1.79;73.98;97719.56;10287033;28;96907;-65
2021/12/17 23:21:44;;;;;;;30.25;17.17;;;;;;;1.82;74.29;97720.28;10286881;28;98463;-65
2021/12/17 23:26:49;;;;;;;35.72;19.80;;;;;;;1.84;74.24;97718.50;10288745;28;98480;-65
2021/12/17 23:31:52;;;;;;;33.65;18.60;;;;;;;1.83;74.12;97721.94;10293721;28;97897;-65
2021/12/17 23:36:57;;;;;;;32.10;18.70;;;;;;;1.84;74.22;97712.50;10294566;28;98104;-65
2021/12/17 23:42:01;;;;;;;30.70;18.27;;;;;;;1.87;74.34;97714.97;10295667;28;97626;-65
2021/12/17 23:47:04;;;;;;;34.63;19.13;;;;;;;1.80;74.48;97709.22;10296912;28;97957;-65
2021/12/17 23:52:08;;;;;;;37.05;19.63;;;;;;;1.79;74.43;97715.25;10293560;28;97233;-65
2021/12/17 23:57:12;;;;;;;32.78;19.98;;;;;;;1.82;74.66;97709.97;10290855;28;96975;-66
